ADDS METAR Data INFO
IDs: Format: Raw Decoded Include TAF

Data at: 2030 UTC 20 Jul 2018

PHJH 201950Z 05012KT 15SM FEW025 FEW045 29/20 A3000
PHJH 201850Z 04010KT 15SM FEW020 FEW040 28/19 A3000
PHJH 201750Z 03010KT 15SM FEW020 FEW040 27/19 A3000
PHJH 201650Z 04010KT 15SM FEW025 SCT040 24/19 A3000
PHJH 201603Z 05010KT 15SM FEW025 SCT040 24/18 A2998
PHJH 200350Z 05012KT 15SM SCT050 SCT280 27/20 A2998 RMK LAST
PHJH 200250Z 03019G26KT 15SM FEW035 FEW280 28/20 A2997
PHJH 200150Z 04016G24KT 15SM FEW030 FEW035 28/20 A2998
PHJH 200050Z 04016G24KT 15SM FEW040 29/18 A2999
PHJH 192350Z 04016G25KT 15SM SCT040 30/18 A3000
PHJH 192250Z 06016G24KT 15SM SCT045 29/18 A3001
PHJH 192150Z 06014G21KT 15SM SCT043 30/19 A3002
PHJH 192050Z 06015G20KT 15SM FEW035 30/19 A3003
PHJH 191950Z 05014G20KT 15SM FEW040 29/19 A3003
PHJH 191850Z 04015KT 15SM FEW040 28/19 A3004
PHJH 191750Z 06012KT 15SM FEW040 26/18 A3003
PHJH 191650Z 06014G20KT 15SM FEW040 25/19 A3002
PHJH 191600Z 06008G18KT 15SM FEW043 25/19 A3001